Terminal Aerodrome Forecast
Issued by NWS Wakefield, VA

Home | Current Version | Previous Version | Text Only | Print | Product List | Glossary On
Versions: 1 2 3 4 5 6 7 8 9 10 11 12 13 14 15 16
000
FTUS41 KAKQ 261510 AAA
TAFECG
TAF AMD
KECG 261510Z 2615/2712 36011KT P6SM OVC008
      TEMPO 2615/2618 OVC012
     FM261800 01010KT P6SM OVC015
     FM262300 01008KT P6SM BKN040
     FM270200 35005KT P6SM SCT250=

USA.gov is the U.S. government's official web portal to all federal, state and local government web resources and services.